Time,TemperatureF,DewpointF,PressureIn,WindDirection,WindDirectionDegrees,WindSpeedMPH,WindSpeedGustMPH,Humidity,HourlyPrecipIn,Conditions,Clouds,dailyrainin,SoftwareType,DateUTC
2013-10-21 00:14:00,48.6,48.3,29.96,NW,315,0.0,-999.0,99,-99.99,,,0.00,Acu-Link.com,2013-10-21 04:14:00,
2013-10-21 00:29:00,48.2,47.9,29.96,NNW,337,0.0,-999.0,99,-99.99,,,0.00,Acu-Link.com,2013-10-21 04:29:00,
2013-10-21 00:44:00,47.8,47.5,29.96,WNW,292,0.0,-999.0,99,-99.99,,,0.00,Acu-Link.com,2013-10-21 04:44:00,
2013-10-21 00:59:00,47.7,47.4,29.96,SW,225,0.0,-999.0,99,-99.99,,,0.00,Acu-Link.com,2013-10-21 04:59:00,
2013-10-21 01:15:00,47.7,47.4,29.96,NW,315,0.0,-999.0,99,-99.99,,,0.00,Acu-Link.com,2013-10-21 05:15:00,
2013-10-21 01:31:00,47.5,47.2,29.96,NNW,337,0.0,-999.0,99,-99.99,,,0.00,Acu-Link.com,2013-10-21 05:31:00,
2013-10-21 01:46:00,47.1,46.8,29.96,WNW,292,0.0,-999.0,99,-99.99,,,0.00,Acu-Link.com,2013-10-21 05:46:00,
2013-10-21 02:01:00,46.9,46.6,29.96,WNW,292,0.0,-999.0,99,-99.99,,,0.00,Acu-Link.com,2013-10-21 06:01:00,
2013-10-21 02:16:00,46.9,46.6,29.96,NNW,337,0.0,-999.0,99,-99.99,,,0.00,Acu-Link.com,2013-10-21 06:16:00,
2013-10-21 02:31:00,46.6,46.3,29.96,WNW,292,0.0,-999.0,99,-99.99,,,0.00,Acu-Link.com,2013-10-21 06:31:00,
2013-10-21 02:46:00,46.4,46.1,29.96,NW,315,0.0,-999.0,99,-99.99,,,0.00,Acu-Link.com,2013-10-21 06:46:00,
2013-10-21 03:02:00,46.4,46.1,29.96,NNW,337,0.0,-999.0,99,-99.99,,,0.00,Acu-Link.com,2013-10-21 07:02:00,
2013-10-21 03:18:00,46.0,45.7,29.96,NW,315,0.0,-999.0,99,-99.99,,,0.00,Acu-Link.com,2013-10-21 07:18:00,
2013-10-21 03:34:00,46.0,45.7,29.96,NW,315,0.0,-999.0,99,-99.99,,,0.00,Acu-Link.com,2013-10-21 07:34:00,
2013-10-21 03:51:00,46.0,45.7,29.96,NW,315,0.0,-999.0,99,-99.99,,,0.00,Acu-Link.com,2013-10-21 07:51:00,
2013-10-21 04:06:00,46.0,45.7,29.96,South,180,0.0,-999.0,99,-99.99,,,0.00,Acu-Link.com,2013-10-21 08:06:00,
2013-10-21 04:21:00,46.0,45.7,29.97,SSW,202,0.0,-999.0,99,-99.99,,,0.00,Acu-Link.com,2013-10-21 08:21:00,
2013-10-21 04:37:00,46.0,45.7,29.97,SSW,202,0.0,-999.0,99,-99.99,,,0.00,Acu-Link.com,2013-10-21 08:37:00,
2013-10-21 04:52:00,45.9,45.6,29.97,NNW,337,0.0,-999.0,99,-99.99,,,0.00,Acu-Link.com,2013-10-21 08:52:00,
2013-10-21 05:09:00,45.9,45.6,29.98,NNW,337,0.0,-999.0,99,-99.99,,,0.00,Acu-Link.com,2013-10-21 09:09:00,
2013-10-21 05:24:00,45.7,45.4,29.98,NW,315,0.0,-999.0,99,-99.99,,,0.00,Acu-Link.com,2013-10-21 09:24:00,
2013-10-21 05:40:00,45.5,45.2,29.98,WNW,292,0.0,-999.0,99,-99.99,,,0.00,Acu-Link.com,2013-10-21 09:40:00,
2013-10-21 05:56:00,45.3,45.0,29.99,WNW,292,0.0,-999.0,99,-99.99,,,0.00,Acu-Link.com,2013-10-21 09:56:00,
2013-10-21 06:11:00,45.1,44.8,29.99,SSW,202,0.0,-999.0,99,-99.99,,,0.00,Acu-Link.com,2013-10-21 10:11:00,
2013-10-21 06:26:00,45.1,44.8,29.99,SSW,202,0.0,-999.0,99,-99.99,,,0.00,Acu-Link.com,2013-10-21 10:26:00,
2013-10-21 06:41:00,45.1,44.8,29.99,NW,315,0.0,-999.0,99,-99.99,,,0.00,Acu-Link.com,2013-10-21 10:41:00,
2013-10-21 06:56:00,45.1,44.8,29.99,South,180,0.0,-999.0,99,-99.99,,,0.00,Acu-Link.com,2013-10-21 10:56:00,
2013-10-21 07:12:00,45.0,44.7,29.99,NE,45,0.0,-999.0,99,-99.99,,,0.00,Acu-Link.com,2013-10-21 11:12:00,
2013-10-21 07:27:00,44.8,44.5,30.00,NW,315,0.0,-999.0,99,-99.99,,,0.00,Acu-Link.com,2013-10-21 11:27:00,
2013-10-21 07:42:00,44.8,44.5,30.00,WNW,292,0.0,-999.0,99,-99.99,,,0.00,Acu-Link.com,2013-10-21 11:42:00,
2013-10-21 07:57:00,44.4,44.1,30.01,NNW,337,0.0,-999.0,99,-99.99,,,0.00,Acu-Link.com,2013-10-21 11:57:00,
2013-10-21 08:13:00,44.4,44.1,30.01,NW,315,0.0,-999.0,99,-99.99,,,0.00,Acu-Link.com,2013-10-21 12:13:00,
2013-10-21 08:29:00,44.8,44.5,30.02,NW,315,0.0,-999.0,99,-99.99,,,0.00,Acu-Link.com,2013-10-21 12:29:00,
2013-10-21 08:44:00,45.3,45.0,30.01,North,0,0.0,-999.0,99,-99.99,,,0.00,Acu-Link.com,2013-10-21 12:44:00,
2013-10-21 08:59:00,46.4,46.1,30.02,NW,315,0.0,-999.0,99,-99.99,,,0.00,Acu-Link.com,2013-10-21 12:59:00,
2013-10-21 09:14:00,48.0,47.7,30.03,WNW,292,0.0,-999.0,99,-99.99,,,0.00,Acu-Link.com,2013-10-21 13:14:00,
2013-10-21 09:29:00,48.9,48.6,30.04,SW,225,0.0,-999.0,99,-99.99,,,0.00,Acu-Link.com,2013-10-21 13:29:00,
2013-10-21 09:44:00,49.8,49.5,30.03,West,270,0.0,-999.0,99,-99.99,,,0.00,Acu-Link.com,2013-10-21 13:44:00,
2013-10-21 09:59:00,52.0,50.6,30.04,WNW,292,0.0,-999.0,95,-99.99,,,0.00,Acu-Link.com,2013-10-21 13:59:00,
2013-10-21 10:14:00,53.8,51.2,30.04,West,270,0.0,-999.0,91,-99.99,,,0.00,Acu-Link.com,2013-10-21 14:14:00,
2013-10-21 10:30:00,55.4,51.9,30.04,WNW,292,0.0,-999.0,88,-99.99,,,0.00,Acu-Link.com,2013-10-21 14:30:00,
2013-10-21 10:45:00,57.0,53.5,30.03,North,0,1.7,-999.0,88,-99.99,,,0.00,Acu-Link.com,2013-10-21 14:45:00,
2013-10-21 11:00:00,58.5,52.7,30.03,WNW,292,1.7,-999.0,81,-99.99,,,0.00,Acu-Link.com,2013-10-21 15:00:00,
2013-10-21 11:15:00,59.7,53.9,30.03,SW,225,0.0,-999.0,81,-99.99,,,0.00,Acu-Link.com,2013-10-21 15:15:00,
2013-10-21 11:30:00,60.6,53.3,30.02,West,270,2.2,-999.0,77,-99.99,,,0.00,Acu-Link.com,2013-10-21 15:30:00,
2013-10-21 11:46:00,61.7,54.1,30.02,North,0,0.0,-999.0,76,-99.99,,,0.00,Acu-Link.com,2013-10-21 15:46:00,
2013-10-21 12:01:00,63.3,54.5,30.02,ESE,112,0.0,-999.0,73,-99.99,,,0.00,Acu-Link.com,2013-10-21 16:01:00,
2013-10-21 12:16:00,63.5,54.3,30.02,ESE,112,0.0,-999.0,72,-99.99,,,0.00,Acu-Link.com,2013-10-21 16:16:00,
2013-10-21 12:32:00,64.9,53.7,30.01,NNW,337,2.7,-999.0,67,-99.99,,,0.00,Acu-Link.com,2013-10-21 16:32:00,
2013-10-21 12:47:00,64.0,54.4,30.01,ESE,112,0.0,-999.0,71,-99.99,,,0.00,Acu-Link.com,2013-10-21 16:47:00,
2013-10-21 13:02:00,64.2,55.0,30.00,SSW,202,2.2,-999.0,72,-99.99,,,0.00,Acu-Link.com,2013-10-21 17:02:00,
2013-10-21 13:18:00,64.9,56.0,29.99,SW,225,0.0,-999.0,73,-99.99,,,0.00,Acu-Link.com,2013-10-21 17:18:00,
2013-10-21 13:33:00,65.7,54.8,29.99,SW,225,0.0,-999.0,68,-99.99,,,0.00,Acu-Link.com,2013-10-21 17:33:00,
2013-10-21 13:48:00,66.0,55.5,29.97,ENE,67,0.0,-999.0,69,-99.99,,,0.00,Acu-Link.com,2013-10-21 17:48:00,
2013-10-21 14:04:00,66.4,56.3,29.97,SE,135,0.0,-999.0,70,-99.99,,,0.00,Acu-Link.com,2013-10-21 18:04:00,
2013-10-21 14:19:00,68.7,55.6,29.95,NW,315,2.7,-999.0,63,-99.99,,,0.00,Acu-Link.com,2013-10-21 18:19:00,
2013-10-21 14:34:00,69.3,57.0,29.95,SW,225,0.0,-999.0,65,-99.99,,,0.00,Acu-Link.com,2013-10-21 18:34:00,
2013-10-21 14:49:00,69.3,56.6,29.95,WSW,247,0.0,-999.0,64,-99.99,,,0.00,Acu-Link.com,2013-10-21 18:49:00,
2013-10-21 15:05:00,68.4,56.6,29.94,West,270,0.0,-999.0,66,-99.99,,,0.00,Acu-Link.com,2013-10-21 19:05:00,
2013-10-21 15:20:00,68.7,56.5,29.94,West,270,0.0,-999.0,65,-99.99,,,0.00,Acu-Link.com,2013-10-21 19:20:00,
2013-10-21 15:35:00,68.7,57.7,29.93,NW,315,0.0,-999.0,68,-99.99,,,0.00,Acu-Link.com,2013-10-21 19:35:00,
2013-10-21 15:50:00,68.5,57.5,29.92,NNW,337,0.0,-999.0,68,-99.99,,,0.00,Acu-Link.com,2013-10-21 19:50:00,
2013-10-21 16:05:00,68.4,59.4,29.92,WNW,292,0.0,-999.0,73,-99.99,,,0.00,Acu-Link.com,2013-10-21 20:05:00,
2013-10-21 16:21:00,67.8,58.0,29.91,South,180,0.0,-999.0,71,-99.99,,,0.00,Acu-Link.com,2013-10-21 20:21:00,
2013-10-21 16:36:00,67.5,57.8,29.91,SSW,202,0.0,-999.0,71,-99.99,,,0.00,Acu-Link.com,2013-10-21 20:36:00,
2013-10-21 16:51:00,66.6,57.7,29.91,West,270,0.0,-999.0,73,-99.99,,,0.00,Acu-Link.com,2013-10-21 20:51:00,
2013-10-21 17:06:00,66.2,57.7,29.92,SSW,202,0.0,-999.0,74,-99.99,,,0.00,Acu-Link.com,2013-10-21 21:06:00,
2013-10-21 17:22:00,66.0,57.5,29.92,NE,45,0.0,-999.0,74,-99.99,,,0.00,Acu-Link.com,2013-10-21 21:22:00,
2013-10-21 17:37:00,65.3,57.9,29.92,South,180,0.0,-999.0,77,-99.99,,,0.00,Acu-Link.com,2013-10-21 21:37:00,
2013-10-21 17:52:00,64.8,57.8,29.92,SSW,202,0.0,-999.0,78,-99.99,,,0.00,Acu-Link.com,2013-10-21 21:52:00,
2013-10-21 18:08:00,64.0,57.4,29.91,SSW,202,0.0,-999.0,79,-99.99,,,0.00,Acu-Link.com,2013-10-21 22:08:00,
2013-10-21 18:23:00,63.5,57.6,29.91,SSW,202,0.0,-999.0,81,-99.99,,,0.00,Acu-Link.com,2013-10-21 22:23:00,
2013-10-21 18:38:00,62.6,57.7,29.91,SSW,202,0.0,-999.0,84,-99.99,,,0.00,Acu-Link.com,2013-10-21 22:38:00,
2013-10-21 18:53:00,61.5,57.9,29.90,SSE,157,0.0,-999.0,88,-99.99,,,0.00,Acu-Link.com,2013-10-21 22:53:00,
2013-10-21 19:09:00,61.3,57.7,29.91,NE,45,0.0,-999.0,88,-99.99,,,0.00,Acu-Link.com,2013-10-21 23:09:00,
2013-10-21 19:24:00,60.4,57.5,29.91,South,180,0.0,-999.0,90,-99.99,,,0.00,Acu-Link.com,2013-10-21 23:24:00,
2013-10-21 19:39:00,60.1,57.8,29.92,South,180,0.0,-999.0,92,-99.99,,,0.00,Acu-Link.com,2013-10-21 23:39:00,
2013-10-21 19:54:00,59.7,57.4,29.92,ESE,112,0.0,-999.0,92,-99.99,,,0.00,Acu-Link.com,2013-10-21 23:54:00,
2013-10-21 20:09:00,59.4,57.4,29.91,SSW,202,0.0,-999.0,93,-99.99,,,0.00,Acu-Link.com,2013-10-22 00:09:00,
2013-10-21 20:24:00,58.8,57.4,29.91,SE,135,0.0,-999.0,95,-99.99,,,0.00,Acu-Link.com,2013-10-22 00:24:00,
2013-10-21 20:39:00,58.3,57.2,29.91,SE,135,0.0,-999.0,96,-99.99,,,0.00,Acu-Link.com,2013-10-22 00:39:00,
2013-10-21 20:54:00,57.9,57.1,29.90,SE,135,0.0,-999.0,97,-99.99,,,0.00,Acu-Link.com,2013-10-22 00:54:00,
2013-10-21 21:09:00,57.7,56.9,29.90,SE,135,0.0,-999.0,97,-99.99,,,0.00,Acu-Link.com,2013-10-22 01:09:00,
2013-10-21 21:24:00,57.2,56.6,29.90,SSE,157,0.0,-999.0,98,-99.99,,,0.00,Acu-Link.com,2013-10-22 01:24:00,
2013-10-21 21:40:00,57.0,56.2,29.90,SE,135,0.0,-999.0,97,-99.99,,,0.00,Acu-Link.com,2013-10-22 01:40:00,
2013-10-21 21:55:00,56.8,56.5,29.90,NNW,337,0.0,-999.0,99,-99.99,,,0.00,Acu-Link.com,2013-10-22 01:55:00,
2013-10-21 22:10:00,56.7,56.4,29.90,NNE,22,0.0,-999.0,99,-99.99,,,0.00,Acu-Link.com,2013-10-22 02:10:00,
2013-10-21 22:25:00,56.5,56.2,29.90,SSE,157,0.0,-999.0,99,-99.99,,,0.00,Acu-Link.com,2013-10-22 02:25:00,
2013-10-21 22:40:00,56.5,56.2,29.90,South,180,0.0,-999.0,99,-99.99,,,0.00,Acu-Link.com,2013-10-22 02:40:00,
2013-10-21 22:56:00,56.3,56.0,29.90,SSE,157,0.0,-999.0,99,-99.99,,,0.00,Acu-Link.com,2013-10-22 02:56:00,
2013-10-21 23:11:00,56.3,56.0,29.90,SSE,157,0.0,-999.0,99,-99.99,,,0.00,Acu-Link.com,2013-10-22 03:11:00,
2013-10-21 23:26:00,56.1,55.8,29.90,SSE,157,0.0,-999.0,99,-99.99,,,0.00,Acu-Link.com,2013-10-22 03:26:00,
2013-10-21 23:41:00,56.1,55.8,29.91,SW,225,0.0,-999.0,99,-99.99,,,0.00,Acu-Link.com,2013-10-22 03:41:00,
2013-10-21 23:56:00,55.9,55.6,29.91,SSE,157,0.0,-999.0,99,-99.99,,,0.00,Acu-Link.com,2013-10-22 03:56:00,